Overview Statistics Trail Chart Weather Telemetry Raw packets
 

This is the latest recevied weather packets stored in our database for station/object OK4PZ-5. If no packets are shown the sender has not sent any weather packets the latest 10 day(s).

<< 13 14 15 16 17 18 19 >>
Time Temp. Humidity Pressure Rain* Wind** Luminosity Snow
1788292802 13.33° C 85% 1024 hPa 0 mm - - -
1788291904 13.89° C 84% 1024 hPa 0 mm - - -
1788291002 14.44° C 82% 1023 hPa 0 mm - - -
1788290102 15° C 79% 1023 hPa 0 mm - - -
1788289202 15.56° C 79% 1023 hPa 0 mm - - -
1788288303 15.56° C 73% 1023 hPa 0 mm - - -
1788287403 16.11° C 71% 1023 hPa 0 mm - - -
1788286502 16.67° C 69% 1023 hPa 0 mm - - -
1788285605 18.33° C 61% 1023 hPa 0 mm - - -
1788284703 19.44° C 54% 1023 hPa 0 mm - - -
1788283803 20° C 52% 1023 hPa 0 mm - - -
1788282902 21.67° C 50% 1023 hPa 0 mm - - -
1788282002 21.67° C 47% 1023 hPa 0 mm - - -
1788281102 21.67° C 47% 1023 hPa 0 mm - - -
1788280202 21.67° C 47% 1023 hPa 0 mm - - -
1788279302 22.22° C 47% 1023 hPa 0 mm - - -
1788278402 21.67° C 48% 1023 hPa 0 mm - - -
1788277502 22.78° C 45% 1023 hPa 0 mm - - -
1788276602 23.33° C 44% 1023 hPa 0 mm - - -
1788274802 23.89° C 44% 1022 hPa 0 mm - - -
1788273903 23.33° C 45% 1023 hPa 0 mm - - -
1788273003 22.78° C 46% 1023 hPa 0 mm - - -
1788272102 23.33° C 43% 1023 hPa 0 mm - - -
1788271202 22.78° C 45% 1023 hPa 0 mm - - -
1788270302 23.89° C 44% 1023 hPa 0 mm - - -

* Rain latest hour (hover to see other rain measurements)
** Current wind speed in m/s (hover to see current wind gust speed)